Time;durP1;ratioP1;P1;durP2;ratioP2;P2;SDS_P1;SDS_P2;PMS_P1;PMS_P2;Temp;Humidity;BMP_temperature;BMP_pressure;BME280_temperature;BME280_humidity;BME280_pressure;Samples;Min_cycle;Max_cycle;Signal;HPM_P1;HPM_P2
2023/05/18 00:01:52;;;;;;;6.50;4.70;;;17.60;80.00;;;;;;6179817;22;20036;-52
2023/05/18 00:04:22;;;;;;;7.40;5.50;;;17.50;80.10;;;;;;6179105;22;20016;-54
2023/05/18 00:06:55;;;;;;;6.10;5.28;;;17.50;80.60;;;;;;6178813;22;20005;-54
2023/05/18 00:09:23;;;;;;;6.50;5.30;;;17.50;81.60;;;;;;6180020;22;20016;-54
2023/05/18 00:11:48;;;;;;;6.75;5.30;;;17.40;81.90;;;;;;6179550;22;20005;-52
2023/05/18 00:14:14;;;;;;;6.95;6.00;;;17.40;82.10;;;;;;6180446;22;20012;-52
2023/05/18 00:16:40;;;;;;;5.80;5.13;;;17.40;84.80;;;;;;6178337;22;20036;-54
2023/05/18 00:19:05;;;;;;;7.38;6.07;;;17.40;87.20;;;;;;6179664;22;19997;-50
2023/05/18 00:21:32;;;;;;;9.40;6.03;;;17.50;90.10;;;;;;6178813;22;20017;-53
2023/05/18 00:23:58;;;;;;;8.20;5.50;;;17.50;91.20;;;;;;6179750;22;20471;-55
2023/05/18 00:26:23;;;;;;;7.57;5.93;;;17.60;92.10;;;;;;6178896;22;20009;-51
2023/05/18 00:28:49;;;;;;;6.78;6.07;;;17.60;92.70;;;;;;6179236;22;20008;-53
2023/05/18 00:31:15;;;;;;;7.88;6.35;;;17.60;93.10;;;;;;6179889;22;20436;-54
2023/05/18 00:33:40;;;;;;;7.28;5.80;;;17.60;92.90;;;;;;6179819;22;19997;-52
2023/05/18 00:36:06;;;;;;;8.38;6.10;;;17.60;92.30;;;;;;6179814;22;20542;-51
2023/05/18 00:38:32;;;;;;;7.78;6.68;;;17.60;91.90;;;;;;6178849;22;20016;-53
2023/05/18 00:40:58;;;;;;;8.10;6.22;;;17.60;92.00;;;;;;6179363;22;19997;-54
2023/05/18 00:43:23;;;;;;;8.13;6.20;;;17.60;93.00;;;;;;6179118;22;20455;-53
2023/05/18 00:45:49;;;;;;;8.32;5.80;;;17.60;94.00;;;;;;6180066;22;20012;-54
2023/05/18 00:48:15;;;;;;;7.78;6.30;;;17.60;94.70;;;;;;6178454;22;20009;-53
2023/05/18 00:50:40;;;;;;;8.32;6.07;;;17.60;95.20;;;;;;6179043;22;20008;-55
2023/05/18 00:53:09;;;;;;;6.97;5.80;;;17.60;95.80;;;;;;6179050;22;20001;-51
2023/05/18 00:55:35;;;;;;;7.22;5.72;;;17.60;96.10;;;;;;6179365;23;20001;-53
2023/05/18 00:58:01;;;;;;;7.43;6.40;;;17.60;96.10;;;;;;6176822;22;20074;-55
2023/05/18 01:00:27;;;;;;;8.40;6.20;;;17.60;96.30;;;;;;6178540;22;19997;-51
2023/05/18 01:02:54;;;;;;;8.40;6.35;;;17.60;96.40;;;;;;6281796;22;20013;-54
2023/05/18 01:05:20;;;;;;;7.68;5.70;;;17.60;96.40;;;;;;6179898;22;20493;-55
2023/05/18 01:07:47;;;;;;;7.28;6.07;;;17.60;95.90;;;;;;6177508;22;20005;-55
2023/05/18 01:10:16;;;;;;;6.90;6.20;;;17.60;96.10;;;;;;6178401;22;20009;-53
2023/05/18 01:12:59;;;;;;;12.48;9.13;;;17.60;96.60;;;;;;6178487;22;20009;-55
2023/05/18 01:15:38;;;;;;;9.15;6.85;;;17.60;96.10;;;;;;6177924;22;20432;-52
2023/05/18 01:18:27;;;;;;;7.53;6.35;;;17.60;96.50;;;;;;6178447;22;20008;-51
2023/05/18 01:21:10;;;;;;;7.38;6.32;;;17.50;94.90;;;;;;6178266;22;20318;-56
2023/05/18 01:23:57;;;;;;;6.47;5.85;;;17.50;95.00;;;;;;6179003;22;20457;-56
2023/05/18 01:26:31;;;;;;;7.10;6.15;;;17.50;94.00;;;;;;6178886;22;20352;-53
2023/05/18 01:29:04;;;;;;;7.75;5.30;;;17.40;93.90;;;;;;6179280;22;20059;-52
2023/05/18 01:31:30;;;;;;;8.70;5.28;;;17.30;93.10;;;;;;6178649;22;20029;-53
2023/05/18 01:33:55;;;;;;;7.43;5.63;;;17.30;92.30;;;;;;6177873;22;20418;-54
2023/05/18 01:36:21;;;;;;;6.57;5.40;;;17.20;91.80;;;;;;6280656;22;20801;-52
2023/05/18 01:38:47;;;;;;;6.93;5.05;;;17.20;91.50;;;;;;6281661;22;20099;-53
2023/05/18 01:41:23;;;;;;;7.45;5.80;;;17.20;91.10;;;;;;6178866;23;20440;-54
2023/05/18 01:43:58;;;;;;;6.55;5.60;;;17.20;90.80;;;;;;6179444;22;20138;-54
2023/05/18 01:46:39;;;;;;;6.88;5.28;;;17.10;90.60;;;;;;6178626;22;20009;-55
2023/05/18 01:49:21;;;;;;;6.70;5.50;;;17.10;90.30;;;;;;6281083;22;20021;-55
2023/05/18 01:51:49;;;;;;;6.55;5.20;;;17.10;90.00;;;;;;6178734;22;20008;-55
2023/05/18 01:54:19;;;;;;;6.95;5.35;;;17.10;89.70;;;;;;6178281;22;20005;-57
2023/05/18 01:56:47;;;;;;;6.68;5.28;;;17.10;89.20;;;;;;6178347;22;20690;-56
2023/05/18 01:59:14;;;;;;;5.75;4.80;;;17.00;88.90;;;;;;6178581;23;19997;-53
2023/05/18 02:01:40;;;;;;;5.90;4.95;;;17.00;88.80;;;;;;6179067;22;20663;-54
2023/05/18 02:04:09;;;;;;;7.72;5.20;;;17.00;88.30;;;;;;6177202;22;20066;-57
2023/05/18 02:06:36;;;;;;;8.10;4.78;;;17.00;87.70;;;;;;6177612;22;20005;-55
2023/05/18 02:09:03;;;;;;;6.22;5.63;;;17.00;87.40;;;;;;6179139;22;20011;-51
2023/05/18 02:11:29;;;;;;;14.00;5.35;;;17.00;87.70;;;;;;6177477;22;20057;-54
2023/05/18 02:13:55;;;;;;;6.32;5.72;;;17.00;86.80;;;;;;6178600;22;20324;-53
2023/05/18 02:16:20;;;;;;;8.60;5.30;;;17.00;86.50;;;;;;6179771;22;20032;-51
2023/05/18 02:18:46;;;;;;;8.02;6.05;;;17.00;86.10;;;;;;6179526;22;20047;-52
2023/05/18 02:21:12;;;;;;;8.10;5.47;;;17.00;86.20;;;;;;6178069;22;20491;-54
2023/05/18 02:23:38;;;;;;;6.18;5.25;;;17.00;85.90;;;;;;6179087;22;20012;-53
2023/05/18 02:26:04;;;;;;;6.95;5.68;;;17.00;85.70;;;;;;6179689;22;20020;-54
2023/05/18 02:28:30;;;;;;;6.20;5.05;;;17.00;85.70;;;;;;6179325;22;20005;-54
2023/05/18 02:31:05;;;;;;;7.75;5.30;;;17.00;85.40;;;;;;6178761;22;19997;-54
2023/05/18 02:33:38;;;;;;;7.28;5.32;;;17.00;85.40;;;;;;6179600;22;20028;-51
2023/05/18 02:36:06;;;;;;;5.80;5.07;;;17.00;85.40;;;;;;6180170;23;20001;-51
2023/05/18 02:38:31;;;;;;;5.32;4.80;;;17.00;85.20;;;;;;6179670;22;20035;-52
2023/05/18 02:40:57;;;;;;;9.00;6.07;;;17.00;85.20;;;;;;6179366;22;20001;-53
2023/05/18 02:43:23;;;;;;;6.70;5.18;;;16.90;85.40;;;;;;6178970;22;20080;-52
2023/05/18 02:45:48;;;;;;;6.32;5.70;;;17.00;85.70;;;;;;6179907;22;20058;-52
2023/05/18 02:48:14;;;;;;;8.75;5.63;;;17.00;85.90;;;;;;6179299;22;20531;-54
2023/05/18 02:50:40;;;;;;;10.25;5.32;;;17.00;85.50;;;;;;6179573;22;20007;-53
2023/05/18 02:53:06;;;;;;;6.90;5.32;;;17.00;85.30;;;;;;6179420;22;20036;-55
2023/05/18 02:55:31;;;;;;;6.72;5.65;;;17.00;85.30;;;;;;6179800;22;20405;-53
2023/05/18 02:57:58;;;;;;;8.10;5.43;;;17.00;85.00;;;;;;6179777;22;20011;-55
2023/05/18 03:00:24;;;;;;;6.07;5.25;;;17.10;86.20;;;;;;6178834;22;20013;-54
2023/05/18 03:02:50;;;;;;;7.65;5.60;;;17.10;85.70;;;;;;6178744;22;20012;-54
2023/05/18 03:05:17;;;;;;;6.72;5.28;;;17.10;85.40;;;;;;6179659;22;20009;-54
2023/05/18 03:07:49;;;;;;;6.40;5.32;;;17.20;85.40;;;;;;6179589;22;20005;-53
2023/05/18 03:10:15;;;;;;;6.57;5.18;;;17.20;85.40;;;;;;6179229;22;20001;-52
2023/05/18 03:12:41;;;;;;;6.97;5.40;;;17.30;85.40;;;;;;6178319;22;20013;-55
2023/05/18 03:15:07;;;;;;;6.32;5.03;;;17.40;85.10;;;;;;6178654;22;20421;-54
2023/05/18 03:17:33;;;;;;;6.07;5.10;;;17.40;84.70;;;;;;6179331;22;20054;-55
2023/05/18 03:19:58;;;;;;;6.88;5.43;;;17.50;84.70;;;;;;6179649;22;20001;-52
2023/05/18 03:22:24;;;;;;;6.65;4.80;;;17.60;84.70;;;;;;6179780;22;20091;-58
2023/05/18 03:24:50;;;;;;;5.75;4.47;;;17.70;84.20;;;;;;6179875;22;20106;-53
2023/05/18 03:27:17;;;;;;;7.15;4.70;;;17.90;83.80;;;;;;6179110;22;20314;-56
2023/05/18 03:29:43;;;;;;;7.40;4.43;;;18.00;83.40;;;;;;6181102;22;20005;-53
2023/05/18 03:32:08;;;;;;;7.38;5.00;;;18.20;83.00;;;;;;6179711;22;20032;-51
2023/05/18 03:34:35;;;;;;;8.23;5.28;;;18.40;82.80;;;;;;6177244;22;20067;-56
2023/05/18 03:37:01;;;;;;;7.47;4.60;;;18.60;82.40;;;;;;6180004;22;20031;-53
2023/05/18 03:39:27;;;;;;;7.55;4.47;;;18.90;82.00;;;;;;6180331;22;20594;-51
2023/05/18 03:41:53;;;;;;;5.50;3.95;;;19.30;81.10;;;;;;6179805;22;20012;-54
2023/05/18 03:44:18;;;;;;;6.43;4.43;;;19.70;79.80;;;;;;6180389;22;20001;-53
2023/05/18 03:46:44;;;;;;;7.05;4.05;;;20.10;78.40;;;;;;6179498;22;20017;-53
2023/05/18 03:49:10;;;;;;;5.65;4.03;;;20.60;77.10;;;;;;6179180;22;20090;-53
2023/05/18 03:51:35;;;;;;;4.95;4.13;;;21.20;75.30;;;;;;6178985;22;20395;-54
2023/05/18 03:54:01;;;;;;;4.40;3.55;;;21.90;73.30;;;;;;6180236;22;20029;-52
2023/05/18 03:56:29;;;;;;;5.45;3.92;;;22.60;71.30;;;;;;6179112;22;20385;-55
2023/05/18 03:58:57;;;;;;;4.72;3.60;;;23.40;69.20;;;;;;6179486;22;20008;-56
2023/05/18 04:01:23;;;;;;;5.07;4.00;;;24.10;67.10;;;;;;6177831;22;20005;-52
2023/05/18 04:03:50;;;;;;;4.10;3.30;;;24.90;65.00;;;;;;6178062;22;20432;-55
2023/05/18 04:06:16;;;;;;;5.60;4.28;;;25.60;63.10;;;;;;6179536;22;20058;-56
2023/05/18 04:08:42;;;;;;;5.53;3.67;;;26.20;61.60;;;;;;6178736;22;20009;-55
2023/05/18 04:11:08;;;;;;;6.10;4.13;;;26.80;60.30;;;;;;6179511;22;20627;-55
2023/05/18 04:13:36;;;;;;;6.30;4.10;;;27.40;59.10;;;;;;6178571;22;20005;-54
2023/05/18 04:16:03;;;;;;;5.78;3.97;;;28.10;58.00;;;;;;6178374;22;20009;-55
2023/05/18 04:18:29;;;;;;;7.10;4.10;;;28.60;56.70;;;;;;6176070;22;20005;-54
2023/05/18 04:20:55;;;;;;;6.72;3.80;;;29.20;55.40;;;;;;6175867;22;20005;-55
2023/05/18 04:23:21;;;;;;;5.65;4.13;;;29.70;54.20;;;;;;6176314;22;20001;-56
2023/05/18 04:25:48;;;;;;;6.20;4.20;;;30.20;53.30;;;;;;6175289;22;20410;-55
2023/05/18 04:28:14;;;;;;;5.05;3.70;;;30.60;52.50;;;;;;6176573;22;20001;-55
2023/05/18 04:30:39;;;;;;;6.13;4.10;;;31.00;51.50;;;;;;6175256;22;20012;-55
2023/05/18 04:33:05;;;;;;;8.52;4.10;;;31.40;50.60;;;;;;6177589;22;20005;-54
2023/05/18 04:35:31;;;;;;;5.43;3.70;;;31.70;49.30;;;;;;6174898;22;19997;-55
2023/05/18 04:37:57;;;;;;;9.35;3.67;;;32.00;48.50;;;;;;6177805;22;20504;-57
2023/05/18 04:40:24;;;;;;;6.75;3.80;;;32.40;47.90;;;;;;6175248;22;20053;-54
2023/05/18 04:42:49;;;;;;;5.88;3.97;;;32.70;47.30;;;;;;6172928;23;20065;-56
2023/05/18 04:45:19;;;;;;;5.57;3.80;;;32.90;46.60;;;;;;6176192;22;20363;-56
2023/05/18 04:47:46;;;;;;;4.78;3.78;;;33.20;46.10;;;;;;6173006;22;20005;-56
2023/05/18 04:50:16;;;;;;;4.13;3.50;;;33.50;45.90;;;;;;6175818;22;20001;-54
2023/05/18 04:52:49;;;;;;;6.55;3.90;;;33.80;45.70;;;;;;6176614;22;20386;-54
2023/05/18 04:55:24;;;;;;;5.45;3.80;;;34.00;45.70;;;;;;6175505;22;20004;-55
2023/05/18 04:57:52;;;;;;;5.38;3.78;;;34.20;45.10;;;;;;6176607;22;20061;-56
2023/05/18 05:00:19;;;;;;;5.28;3.67;;;34.40;44.70;;;;;;6174085;22;20103;-55
2023/05/18 05:02:45;;;;;;;5.38;3.47;;;34.50;43.70;;;;;;6172439;22;20082;-55
2023/05/18 05:05:10;;;;;;;9.32;4.00;;;34.50;43.50;;;;;;6170008;22;20013;-57
2023/05/18 05:07:36;;;;;;;4.30;3.67;;;34.40;44.10;;;;;;6174446;22;20460;-55
2023/05/18 05:10:02;;;;;;;6.60;4.07;;;34.10;43.60;;;;;;6171749;22;20109;-56
2023/05/18 05:12:28;;;;;;;4.47;3.58;;;33.90;44.30;;;;;;6173945;22;20400;-54
2023/05/18 05:14:54;;;;;;;4.85;3.83;;;34.00;43.60;;;;;;6173647;22;20037;-55
2023/05/18 05:17:21;;;;;;;5.22;3.67;;;34.10;43.20;;;;;;6173197;22;20004;-55
2023/05/18 05:19:47;;;;;;;5.55;3.53;;;34.20;43.00;;;;;;6175533;22;20059;-55
2023/05/18 05:22:13;;;;;;;5.70;3.40;;;34.20;43.60;;;;;;6177120;22;20013;-54
2023/05/18 05:24:39;;;;;;;5.13;3.65;;;33.90;43.10;;;;;;6176853;22;20437;-54
2023/05/18 05:27:04;;;;;;;6.07;3.63;;;33.30;43.50;;;;;;6175198;22;20008;-53
2023/05/18 05:29:30;;;;;;;4.97;3.97;;;32.50;44.30;;;;;;6174287;22;20002;-55
2023/05/18 05:31:56;;;;;;;7.03;3.90;;;31.70;44.60;;;;;;6173911;22;20013;-54
2023/05/18 05:34:21;;;;;;;6.35;4.00;;;30.90;45.50;;;;;;6174187;22;20608;-54
2023/05/18 05:36:47;;;;;;;4.55;3.85;;;30.20;46.10;;;;;;6172955;22;20006;-54
2023/05/18 05:39:12;;;;;;;5.28;3.88;;;29.40;46.80;;;;;;6172425;22;20005;-54
2023/05/18 05:41:39;;;;;;;5.10;3.70;;;28.80;47.70;;;;;;6166667;22;20009;-56
2023/05/18 05:44:04;;;;;;;5.05;4.00;;;28.10;47.90;;;;;;6168370;22;20013;-54
2023/05/18 05:46:30;;;;;;;6.40;3.58;;;27.60;48.80;;;;;;6168571;22;20367;-56
2023/05/18 05:48:55;;;;;;;6.35;3.58;;;27.00;49.90;;;;;;6168376;22;20037;-56
2023/05/18 05:51:21;;;;;;;4.95;3.90;;;26.60;50.60;;;;;;6170536;22;20471;-53
2023/05/18 05:53:48;;;;;;;5.47;3.90;;;26.20;51.20;;;;;;6172954;22;20425;-54
2023/05/18 05:56:13;;;;;;;5.15;3.55;;;25.80;51.90;;;;;;6174433;22;20001;-55
2023/05/18 05:58:41;;;;;;;5.00;4.05;;;25.60;52.40;;;;;;6172573;22;20074;-55
2023/05/18 06:01:07;;;;;;;5.15;4.05;;;25.30;53.00;;;;;;6171911;22;20001;-56
2023/05/18 06:03:33;;;;;;;5.68;3.60;;;25.10;53.50;;;;;;6171526;22;20007;-56
2023/05/18 06:05:59;;;;;;;4.75;3.70;;;24.90;54.10;;;;;;6172195;22;19997;-50
2023/05/18 06:08:24;;;;;;;5.55;3.88;;;24.70;54.40;;;;;;6174107;22;20005;-54
2023/05/18 06:10:50;;;;;;;5.28;4.07;;;24.60;54.80;;;;;;6174905;22;20032;-54
2023/05/18 06:13:16;;;;;;;9.88;3.85;;;24.40;55.00;;;;;;6174494;22;20114;-54
2023/05/18 06:15:41;;;;;;;7.20;3.95;;;24.30;55.50;;;;;;6168845;22;20511;-54
2023/05/18 06:18:07;;;;;;;4.45;3.60;;;24.10;55.50;;;;;;6171888;22;20005;-54
2023/05/18 06:20:33;;;;;;;7.80;3.75;;;24.00;55.90;;;;;;6167095;22;20421;-53
2023/05/18 06:22:58;;;;;;;6.10;4.03;;;23.90;56.20;;;;;;6168980;22;20017;-53
2023/05/18 06:25:24;;;;;;;5.63;4.32;;;23.80;56.40;;;;;;6166273;22;20005;-53
2023/05/18 06:27:50;;;;;;;4.07;3.63;;;23.70;56.70;;;;;;6169338;22;20005;-55
2023/05/18 06:30:16;;;;;;;6.50;4.32;;;23.60;56.60;;;;;;6171799;22;20009;-53
2023/05/18 06:32:42;;;;;;;5.35;3.63;;;23.60;56.90;;;;;;6169094;22;20009;-53
2023/05/18 06:35:08;;;;;;;3.88;3.47;;;23.50;55.40;;;;;;6170665;22;20005;-55
2023/05/18 06:37:33;;;;;;;5.28;3.50;;;23.50;53.90;;;;;;6167378;22;20781;-54
2023/05/18 06:39:59;;;;;;;4.47;3.20;;;23.40;53.10;;;;;;6168677;22;20158;-56
2023/05/18 06:42:25;;;;;;;8.27;3.42;;;23.50;53.20;;;;;;6170778;22;20009;-52
2023/05/18 06:44:50;;;;;;;6.65;3.72;;;23.50;52.90;;;;;;6167327;22;20344;-53
2023/05/18 06:47:16;;;;;;;4.68;3.80;;;23.50;52.80;;;;;;6171743;22;20005;-54
2023/05/18 06:49:42;;;;;;;5.35;4.05;;;23.50;52.90;;;;;;6166249;22;20482;-56
2023/05/18 06:52:08;;;;;;;4.78;3.72;;;23.50;53.30;;;;;;6169498;22;20020;-53
2023/05/18 06:54:36;;;;;;;5.13;4.00;;;23.50;53.70;;;;;;6167679;22;20005;-53
2023/05/18 06:57:01;;;;;;;6.63;4.00;;;23.60;53.50;;;;;;6274622;22;20798;-57
2023/05/18 06:59:27;;;;;;;4.60;3.83;;;23.60;53.00;;;;;;6170442;22;20050;-55
2023/05/18 07:01:52;;;;;;;4.97;4.10;;;23.60;52.50;;;;;;6168696;22;20078;-52
2023/05/18 07:04:18;;;;;;;5.28;3.78;;;23.60;52.40;;;;;;6163851;22;20485;-57
2023/05/18 07:06:45;;;;;;;7.22;3.55;;;23.60;52.30;;;;;;6267152;22;20020;-57
2023/05/18 07:09:11;;;;;;;3.95;3.55;;;23.60;52.50;;;;;;6266095;22;20092;-57
2023/05/18 07:11:39;;;;;;;4.93;3.60;;;23.60;52.90;;;;;;6167450;22;20005;-53
2023/05/18 07:14:05;;;;;;;6.40;3.67;;;23.60;52.80;;;;;;6165041;22;20009;-57
2023/05/18 07:16:30;;;;;;;4.85;3.85;;;23.60;52.70;;;;;;6159879;23;20005;-54
2023/05/18 07:18:59;;;;;;;3.85;3.40;;;23.60;52.60;;;;;;6164124;22;20787;-55
2023/05/18 07:21:25;;;;;;;4.80;3.35;;;23.60;52.70;;;;;;6164316;23;20419;-57
2023/05/18 07:23:51;;;;;;;4.68;3.47;;;23.60;52.60;;;;;;6160837;22;20009;-55
2023/05/18 07:26:18;;;;;;;4.53;3.63;;;23.60;53.60;;;;;;6156929;22;20779;-56
2023/05/18 07:28:43;;;;;;;5.15;3.95;;;23.60;53.60;;;;;;6159533;22;20021;-57
2023/05/18 07:31:09;;;;;;;6.07;4.05;;;23.60;53.10;;;;;;6159454;23;20009;-54
2023/05/18 07:33:35;;;;;;;4.93;3.70;;;23.50;52.80;;;;;;6163782;22;20058;-55
2023/05/18 07:36:01;;;;;;;5.05;3.72;;;23.50;52.90;;;;;;6157637;22;20377;-54
2023/05/18 07:38:27;;;;;;;5.68;3.42;;;23.40;53.00;;;;;;6152410;22;20009;-55
2023/05/18 07:40:52;;;;;;;6.60;3.83;;;23.40;53.20;;;;;;6161144;22;20009;-57
2023/05/18 07:43:18;;;;;;;6.82;3.83;;;23.40;53.60;;;;;;6162702;22;20011;-55
2023/05/18 07:45:43;;;;;;;4.43;3.65;;;23.40;53.90;;;;;;6161126;22;20043;-58
2023/05/18 07:48:09;;;;;;;4.25;3.70;;;23.40;53.80;;;;;;6162770;22;20009;-58
2023/05/18 07:50:35;;;;;;;7.20;3.88;;;23.40;53.70;;;;;;6161614;22;20012;-58
2023/05/18 07:53:01;;;;;;;4.97;3.53;;;23.40;53.80;;;;;;6266292;22;20488;-57
2023/05/18 07:55:27;;;;;;;5.13;3.60;;;23.40;53.80;;;;;;6157495;22;20032;-58
2023/05/18 07:57:53;;;;;;;4.75;4.20;;;23.40;53.80;;;;;;6264260;22;20503;-57
2023/05/18 08:00:19;;;;;;;5.57;4.32;;;23.50;53.10;;;;;;6257946;22;20400;-57
2023/05/18 08:02:45;;;;;;;6.72;4.15;;;23.50;52.70;;;;;;6161290;22;20084;-55
2023/05/18 08:05:11;;;;;;;5.78;4.35;;;23.50;52.40;;;;;;6158286;22;20089;-55
2023/05/18 08:07:37;;;;;;;7.25;4.38;;;23.50;52.50;;;;;;6163562;22;20031;-57
2023/05/18 08:10:03;;;;;;;7.15;4.88;;;23.50;52.10;;;;;;6160038;23;20096;-55
2023/05/18 08:12:31;;;;;;;7.57;4.32;;;23.50;51.80;;;;;;6160331;22;20028;-54
2023/05/18 08:14:57;;;;;;;5.20;4.70;;;23.50;51.90;;;;;;6162096;22;20044;-57
2023/05/18 08:17:22;;;;;;;8.02;4.90;;;23.50;51.80;;;;;;6160054;22;20096;-56
2023/05/18 08:19:48;;;;;;;6.57;5.10;;;23.50;51.60;;;;;;6161836;22;20055;-51
2023/05/18 08:22:14;;;;;;;6.63;5.50;;;23.50;51.60;;;;;;6161694;22;20013;-55
2023/05/18 08:24:40;;;;;;;7.45;6.10;;;23.50;51.40;;;;;;6161159;22;20456;-56
2023/05/18 08:27:08;;;;;;;8.82;6.20;;;23.50;51.50;;;;;;6157144;22;20728;-56
2023/05/18 08:29:34;;;;;;;7.78;6.97;;;23.50;51.20;;;;;;6153559;22;20009;-58
2023/05/18 08:31:59;;;;;;;8.40;5.95;;;23.50;50.80;;;;;;6157112;22;20017;-59
2023/05/18 08:34:25;;;;;;;6.95;6.22;;;23.50;51.00;;;;;;6263663;22;20051;-58
2023/05/18 08:36:51;;;;;;;10.05;6.88;;;23.50;51.00;;;;;;6160343;22;20001;-58
2023/05/18 08:39:17;;;;;;;11.00;6.82;;;23.50;50.60;;;;;;6157307;22;20058;-58
2023/05/18 08:41:50;;;;;;;7.95;6.40;;;23.50;50.50;;;;;;6162295;22;20082;-58
2023/05/18 08:44:29;;;;;;;9.80;8.07;;;23.40;50.50;;;;;;6157505;22;20520;-58
2023/05/18 08:46:55;;;;;;;10.85;7.85;;;23.40;50.40;;;;;;6159619;22;20009;-57
2023/05/18 08:49:21;;;;;;;10.13;7.68;;;23.40;50.60;;;;;;6156051;22;20016;-55
2023/05/18 08:51:56;;;;;;;9.60;7.80;;;23.40;50.60;;;;;;6155000;22;20005;-53
2023/05/18 08:54:22;;;;;;;8.40;6.97;;;23.40;50.80;;;;;;6163047;22;20349;-54
2023/05/18 08:56:48;;;;;;;8.82;6.70;;;23.40;50.90;;;;;;6156544;22;20001;-55
2023/05/18 08:59:21;;;;;;;8.15;7.35;;;23.40;51.20;;;;;;6159842;22;20009;-54
2023/05/18 09:01:47;;;;;;;9.10;7.03;;;23.40;51.00;;;;;;6157521;22;20058;-57
2023/05/18 09:04:13;;;;;;;10.60;7.50;;;23.40;51.30;;;;;;6153125;22;20008;-55
2023/05/18 09:06:39;;;;;;;9.00;7.45;;;23.40;51.40;;;;;;6155643;22;20085;-56
2023/05/18 09:09:06;;;;;;;10.27;7.35;;;23.40;51.50;;;;;;6160011;22;20009;-59
2023/05/18 09:11:34;;;;;;;9.98;8.23;;;23.40;51.70;;;;;;6154313;22;20009;-57
2023/05/18 09:14:00;;;;;;;8.43;7.63;;;23.40;51.50;;;;;;6157714;22;20445;-53
2023/05/18 09:16:26;;;;;;;9.32;8.05;;;23.40;51.60;;;;;;6154819;22;20004;-56
2023/05/18 09:18:52;;;;;;;9.43;8.07;;;23.40;51.40;;;;;;6154758;23;20001;-59
2023/05/18 09:21:18;;;;;;;10.13;7.85;;;23.40;51.00;;;;;;6156498;23;20017;-59
2023/05/18 09:23:44;;;;;;;9.68;8.05;;;23.40;50.70;;;;;;6158364;22;20014;-55
2023/05/18 09:26:12;;;;;;;8.82;7.75;;;23.40;50.40;;;;;;6160097;22;20053;-55
2023/05/18 09:28:39;;;;;;;9.02;7.80;;;23.40;49.40;;;;;;6158821;22;20454;-57
2023/05/18 09:31:14;;;;;;;9.20;7.80;;;23.50;48.90;;;;;;6156977;23;20097;-54
2023/05/18 09:33:43;;;;;;;11.43;7.50;;;23.50;48.40;;;;;;6160484;22;20440;-52
2023/05/18 09:36:09;;;;;;;8.63;7.63;;;23.40;47.80;;;;;;6162952;23;20005;-54
2023/05/18 09:38:42;;;;;;;8.00;6.93;;;23.50;47.80;;;;;;6157760;22;20488;-55
2023/05/18 09:41:26;;;;;;;9.48;7.25;;;23.60;47.50;;;;;;6162224;22;20001;-55
2023/05/18 09:43:53;;;;;;;7.72;6.95;;;23.60;47.50;;;;;;6161765;22;20012;-56
2023/05/18 09:46:19;;;;;;;9.95;7.50;;;23.60;46.90;;;;;;6161580;22;20133;-57
2023/05/18 09:48:49;;;;;;;8.43;7.53;;;23.70;47.20;;;;;;6155182;22;20012;-58
2023/05/18 09:51:17;;;;;;;8.73;7.88;;;23.70;47.00;;;;;;6161008;23;20450;-57
2023/05/18 09:53:54;;;;;;;8.68;7.78;;;23.70;47.00;;;;;;6158100;22;20005;-57
2023/05/18 09:56:22;;;;;;;8.30;7.50;;;23.80;46.70;;;;;;6153252;22;20001;-57
2023/05/18 09:58:48;;;;;;;8.75;7.13;;;23.80;46.50;;;;;;6158005;22;20675;-55
2023/05/18 10:01:14;;;;;;;8.63;7.72;;;23.90;46.60;;;;;;6156710;22;20005;-56
2023/05/18 10:03:40;;;;;;;7.53;6.82;;;23.90;46.70;;;;;;6161259;23;20011;-57
2023/05/18 10:06:07;;;;;;;8.60;7.70;;;23.90;46.60;;;;;;6160361;22;20613;-56
2023/05/18 10:08:34;;;;;;;8.65;7.75;;;24.00;46.80;;;;;;6150674;22;20492;-58
2023/05/18 10:11:00;;;;;;;10.13;8.02;;;24.00;46.70;;;;;;6160892;22;20143;-58
2023/05/18 10:13:27;;;;;;;8.27;7.40;;;23.90;46.70;;;;;;6158437;22;20005;-56
2023/05/18 10:15:59;;;;;;;9.05;7.18;;;24.00;46.20;;;;;;6264302;22;20064;-57
2023/05/18 10:18:35;;;;;;;8.52;7.65;;;24.00;46.00;;;;;;6165336;22;20012;-57
2023/05/18 10:21:03;;;;;;;16.73;8.20;;;24.00;46.20;;;;;;6156323;22;20005;-57
2023/05/18 10:23:31;;;;;;;8.10;7.30;;;24.00;45.80;;;;;;6162600;22;20115;-57
2023/05/18 10:25:57;;;;;;;8.30;7.50;;;23.90;46.00;;;;;;6157028;22;20005;-57
2023/05/18 10:28:46;;;;;;;8.60;7.70;;;24.00;46.10;;;;;;6150207;22;20005;-59
2023/05/18 10:31:14;;;;;;;8.25;6.57;;;24.00;45.90;;;;;;6152368;22;20038;-57
2023/05/18 10:33:41;;;;;;;8.23;7.35;;;24.00;45.90;;;;;;6150240;22;20001;-56
2023/05/18 10:36:08;;;;;;;8.35;7.55;;;24.00;45.90;;;;;;6151553;22;20225;-56
2023/05/18 10:38:42;;;;;;;9.70;7.30;;;24.00;46.20;;;;;;6157606;22;20092;-58
2023/05/18 10:41:10;;;;;;;9.52;8.60;;;24.00;46.10;;;;;;6158437;22;20006;-58
2023/05/18 10:43:36;;;;;;;10.32;8.52;;;24.00;46.00;;;;;;6158456;22;20009;-58
2023/05/18 10:46:06;;;;;;;8.68;7.63;;;24.10;46.00;;;;;;6151054;23;20363;-58
2023/05/18 10:48:37;;;;;;;11.02;7.95;;;24.10;45.80;;;;;;6153459;22;20516;-58
2023/05/18 10:51:05;;;;;;;8.68;7.78;;;24.10;46.00;;;;;;6150450;22;20005;-60
2023/05/18 10:53:32;;;;;;;9.27;8.27;;;24.10;45.90;;;;;;6144262;22;20123;-59
2023/05/18 10:55:58;;;;;;;10.68;8.27;;;24.10;46.40;;;;;;6151501;22;20934;-56
2023/05/18 10:58:26;;;;;;;10.30;8.15;;;24.00;46.40;;;;;;6154334;22;20011;-56
2023/05/18 11:00:56;;;;;;;11.27;7.78;;;24.00;46.50;;;;;;6154237;22;20012;-57
2023/05/18 11:03:24;;;;;;;9.80;8.32;;;24.00;46.90;;;;;;6146297;22;20071;-55
2023/05/18 11:06:04;;;;;;;9.50;8.45;;;24.00;46.70;;;;;;6152467;22;20541;-57
2023/05/18 11:08:30;;;;;;;9.48;8.45;;;23.90;46.50;;;;;;6154396;22;20719;-56
2023/05/18 11:11:06;;;;;;;9.40;8.23;;;23.90;46.80;;;;;;6155413;22;20653;-54
2023/05/18 11:13:33;;;;;;;9.30;8.25;;;23.90;46.80;;;;;;6156510;22;20009;-59
2023/05/18 11:15:58;;;;;;;9.80;8.80;;;23.90;47.00;;;;;;6149957;22;20001;-58
2023/05/18 11:18:44;;;;;;;9.82;8.70;;;23.90;47.20;;;;;;6157288;22;20005;-59
2023/05/18 11:21:40;;;;;;;10.05;8.30;;;23.90;47.30;;;;;;6160201;22;20009;-55
2023/05/18 11:24:43;;;;;;;9.70;8.27;;;23.90;47.50;;;;;;6167614;22;20012;-52
2023/05/18 11:27:15;;;;;;;9.18;8.25;;;23.90;47.60;;;;;;6158061;22;20086;-55
2023/05/18 11:29:49;;;;;;;11.70;8.35;;;23.80;47.80;;;;;;6152998;22;20106;-55
2023/05/18 11:32:30;;;;;;;9.70;8.27;;;23.80;48.00;;;;;;6150993;22;20020;-58
2023/05/18 11:34:57;;;;;;;9.07;8.18;;;23.80;48.40;;;;;;6156157;22;20044;-57
2023/05/18 11:37:37;;;;;;;12.80;8.77;;;23.80;49.10;;;;;;6156359;22;20021;-57
2023/05/18 11:40:10;;;;;;;10.45;8.40;;;23.80;49.50;;;;;;6156078;22;20081;-55
2023/05/18 11:42:36;;;;;;;10.93;8.68;;;23.70;49.30;;;;;;6154693;22;20697;-56
2023/05/18 11:45:11;;;;;;;10.43;8.38;;;23.70;49.80;;;;;;6153397;22;20013;-55
2023/05/18 11:47:39;;;;;;;10.00;8.60;;;23.70;49.80;;;;;;6160397;22;20080;-57
2023/05/18 11:50:10;;;;;;;9.55;8.60;;;23.70;50.30;;;;;;6159973;22;20463;-54
2023/05/18 11:52:46;;;;;;;10.50;8.43;;;23.70;50.30;;;;;;6148522;22;20009;-57
2023/05/18 11:55:18;;;;;;;10.00;9.00;;;23.70;50.50;;;;;;6154659;23;20005;-55
2023/05/18 11:57:46;;;;;;;9.38;8.43;;;23.60;49.70;;;;;;6152926;22;20005;-56
2023/05/18 12:00:14;;;;;;;10.55;8.98;;;23.60;49.70;;;;;;6151893;23;19997;-57
2023/05/18 12:02:47;;;;;;;9.82;8.68;;;23.60;50.10;;;;;;6148886;22;20085;-59
2023/05/18 12:05:13;;;;;;;10.82;8.32;;;23.60;50.10;;;;;;6153720;22;20009;-55
2023/05/18 12:07:40;;;;;;;9.70;8.65;;;23.50;49.70;;;;;;6164633;22;20008;-60
2023/05/18 12:10:11;;;;;;;10.48;8.90;;;23.50;49.30;;;;;;6165334;23;20033;-57
2023/05/18 12:12:38;;;;;;;11.15;8.85;;;23.50;49.40;;;;;;6162393;22;20014;-56
2023/05/18 12:15:06;;;;;;;11.95;8.95;;;23.50;49.40;;;;;;6164801;23;20009;-55
2023/05/18 12:17:39;;;;;;;9.65;8.15;;;23.50;49.70;;;;;;6161173;22;20012;-55
2023/05/18 12:20:06;;;;;;;10.05;9.05;;;23.40;49.90;;;;;;6263997;22;20433;-54
2023/05/18 12:22:32;;;;;;;9.60;7.95;;;23.40;49.50;;;;;;6258523;22;20020;-55
2023/05/18 12:24:58;;;;;;;10.35;8.82;;;23.40;49.20;;;;;;6155277;22;20035;-60
2023/05/18 12:27:25;;;;;;;11.63;8.85;;;23.40;49.20;;;;;;6158211;22;20005;-57
2023/05/18 12:29:51;;;;;;;10.40;9.30;;;23.40;49.40;;;;;;6265131;22;20005;-56
2023/05/18 12:32:18;;;;;;;9.48;8.52;;;23.40;49.80;;;;;;6264357;22;20043;-58
2023/05/18 12:34:43;;;;;;;10.18;8.82;;;23.40;49.30;;;;;;6271341;22;20016;-53
2023/05/18 12:37:09;;;;;;;11.40;8.90;;;23.40;48.70;;;;;;6258829;22;20009;-57
2023/05/18 12:39:36;;;;;;;10.40;8.05;;;23.40;48.30;;;;;;6149829;22;19997;-59
2023/05/18 12:42:14;;;;;;;10.82;8.80;;;23.40;48.50;;;;;;6258885;22;20710;-59
2023/05/18 12:44:44;;;;;;;10.48;9.25;;;23.50;49.10;;;;;;6265831;22;20009;-57
2023/05/18 12:47:13;;;;;;;8.65;7.65;;;23.50;48.50;;;;;;6160712;23;20013;-59
2023/05/18 12:49:42;;;;;;;9.63;8.48;;;23.50;48.30;;;;;;6164824;22;20009;-57